createdAt,value
2019-01-20T00:00:57.086Z,85.24
2019-01-20T00:03:25.559Z,84.97
2019-01-20T00:05:53.003Z,84.87
2019-01-20T00:08:20.537Z,85.67
2019-01-20T00:10:48.075Z,85.81
2019-01-20T00:13:15.706Z,86.32
2019-01-20T00:15:45.986Z,86.43
2019-01-20T00:18:13.613Z,86.60
2019-01-20T00:20:41.213Z,86.79
2019-01-20T00:23:08.846Z,86.82
2019-01-20T00:25:36.624Z,87.07
2019-01-20T00:28:04.258Z,86.33
2019-01-20T00:30:31.793Z,86.54
2019-01-20T00:32:59.382Z,86.84
2019-01-20T00:35:26.828Z,86.85
2019-01-20T00:37:54.255Z,87.72
2019-01-20T00:40:22.024Z,87.76
2019-01-20T00:42:49.467Z,87.77
2019-01-20T00:45:17.207Z,88.15
2019-01-20T00:47:44.904Z,88.60
2019-01-20T00:50:14.369Z,88.54
2019-01-20T00:52:42.393Z,89.31
2019-01-20T00:55:12.561Z,90.05
2019-01-20T00:57:40.750Z,90.61
2019-01-20T01:00:20.632Z,91.30
2019-01-20T01:02:48.665Z,92.22
2019-01-20T01:05:17.686Z,92.27
2019-01-20T01:07:45.708Z,92.37
2019-01-20T01:10:14.183Z,92.37
2019-01-20T01:12:42.024Z,92.89
2019-01-20T01:15:10.619Z,93.12
2019-01-20T01:17:38.234Z,93.58
2019-01-20T01:20:07.876Z,94.06
2019-01-20T01:22:35.369Z,93.92
2019-01-20T01:25:03.508Z,94.41
2019-01-20T01:27:31.109Z,94.24
2019-01-20T01:29:58.568Z,94.64
2019-01-20T01:32:26.129Z,94.11
2019-01-20T01:34:53.782Z,93.65
2019-01-20T01:37:21.633Z,93.91
2019-01-20T01:39:49.282Z,93.41
2019-01-20T01:42:16.804Z,93.28
2019-01-20T01:44:44.318Z,93.13
2019-01-20T01:47:11.945Z,93.44
2019-01-20T01:49:39.636Z,93.18
2019-01-20T01:52:07.153Z,92.57
2019-01-20T01:54:34.684Z,92.72
2019-01-20T01:57:02.446Z,92.87
2019-01-20T01:59:30.001Z,93.29
2019-01-20T02:01:57.556Z,93.47
2019-01-20T02:04:25.165Z,93.56
2019-01-20T02:06:52.763Z,93.93
2019-01-20T02:09:20.243Z,93.84
2019-01-20T02:11:47.850Z,93.89
2019-01-20T02:14:15.417Z,93.65
2019-01-20T02:16:43.170Z,93.60
2019-01-20T02:19:10.744Z,93.50
2019-01-20T02:21:38.365Z,93.84
2019-01-20T02:24:05.844Z,93.96
2019-01-20T02:26:33.351Z,93.31
2019-01-20T02:29:00.943Z,92.99
2019-01-20T02:31:28.505Z,93.40
2019-01-20T02:33:56.040Z,93.18
2019-01-20T02:36:23.553Z,93.15
2019-01-20T02:38:51.114Z,93.57
2019-01-20T02:41:18.606Z,93.27
2019-01-20T02:43:46.100Z,93.05
2019-01-20T02:46:13.587Z,93.33
2019-01-20T02:48:41.262Z,93.27
2019-01-20T02:51:08.704Z,92.66
2019-01-20T02:53:36.214Z,92.64
2019-01-20T02:56:04.674Z,92.77
2019-01-20T02:58:32.270Z,92.79
2019-01-20T03:00:59.747Z,92.52
2019-01-20T03:03:27.497Z,92.02
2019-01-20T03:05:55.023Z,92.04
2019-01-20T03:08:22.594Z,91.99
2019-01-20T03:10:50.183Z,91.83
2019-01-20T03:13:17.662Z,91.83
2019-01-20T03:15:45.448Z,91.94
2019-01-20T03:18:12.966Z,91.38
2019-01-20T03:20:40.474Z,91.34
2019-01-20T03:23:08.026Z,90.81
2019-01-20T03:25:35.524Z,90.30
2019-01-20T03:28:03.074Z,90.98
2019-01-20T03:30:30.667Z,91.50
2019-01-20T03:32:58.093Z,91.40
2019-01-20T03:35:25.893Z,91.34
2019-01-20T03:37:53.871Z,91.35
2019-01-20T03:40:21.522Z,91.22
2019-01-20T03:42:49.604Z,91.00
2019-01-20T03:45:17.324Z,90.19
2019-01-20T03:47:45.015Z,90.31
2019-01-20T03:50:14.046Z,89.76
2019-01-20T03:52:41.636Z,89.49
2019-01-20T03:55:10.929Z,88.68
2019-01-20T03:57:38.424Z,89.07
2019-01-20T04:00:09.635Z,89.71
2019-01-20T04:02:37.293Z,89.76
2019-01-20T04:05:05.284Z,90.00
2019-01-20T04:07:32.826Z,90.21
2019-01-20T04:10:00.384Z,89.98
2019-01-20T04:12:28.006Z,90.06
2019-01-20T04:14:55.542Z,89.75
2019-01-20T04:17:23.258Z,90.22
2019-01-20T04:19:50.874Z,89.65
2019-01-20T04:22:18.401Z,89.21
2019-01-20T04:24:45.897Z,89.27
2019-01-20T04:27:13.433Z,89.61
2019-01-20T04:29:40.940Z,90.04
2019-01-20T04:32:08.431Z,89.64
2019-01-20T04:34:35.984Z,89.74
2019-01-20T04:37:03.607Z,89.53
2019-01-20T04:39:31.137Z,89.32
2019-01-20T04:41:58.709Z,89.27
2019-01-20T04:44:26.347Z,89.38
2019-01-20T04:46:53.950Z,89.52
2019-01-20T04:49:22.030Z,89.24
2019-01-20T04:51:49.700Z,88.88
2019-01-20T04:54:17.484Z,88.90
2019-01-20T04:56:45.076Z,89.62
2019-01-20T04:59:12.588Z,89.71
2019-01-20T05:01:40.383Z,89.54
2019-01-20T05:04:08.019Z,90.01
2019-01-20T05:06:35.575Z,89.92
2019-01-20T05:09:05.955Z,89.65
2019-01-20T05:11:33.463Z,89.69
2019-01-20T05:14:01.008Z,89.48
2019-01-20T05:16:28.659Z,89.59
2019-01-20T05:18:56.164Z,89.97
2019-01-20T05:21:23.717Z,90.05
2019-01-20T05:23:51.352Z,90.19
2019-01-20T05:26:18.893Z,89.72
2019-01-20T05:28:46.438Z,89.89
2019-01-20T05:31:13.921Z,90.17
2019-01-20T05:33:41.511Z,90.15
2019-01-20T05:36:09.012Z,89.83
2019-01-20T05:38:36.462Z,90.11
2019-01-20T05:41:04.048Z,89.82
2019-01-20T05:43:31.617Z,90.04
2019-01-20T05:45:59.250Z,90.42
2019-01-20T05:48:26.883Z,90.47
2019-01-20T05:50:54.447Z,90.05
2019-01-20T05:53:22.082Z,90.08
2019-01-20T05:55:49.677Z,90.20
2019-01-20T05:58:17.239Z,90.14
2019-01-20T06:00:44.737Z,90.24
2019-01-20T06:03:12.248Z,90.20
2019-01-20T06:05:39.862Z,90.45
2019-01-20T06:08:07.405Z,90.75
2019-01-20T06:10:34.894Z,90.62
2019-01-20T06:13:02.531Z,90.41
2019-01-20T06:15:29.901Z,90.09
2019-01-20T06:17:57.366Z,90.54
2019-01-20T06:20:24.874Z,90.18
2019-01-20T06:22:52.416Z,90.11
2019-01-20T06:25:19.894Z,89.46
2019-01-20T06:27:47.468Z,90.10
2019-01-20T06:30:29.339Z,89.51
2019-01-20T06:32:56.993Z,89.66
2019-01-20T06:35:24.479Z,89.25
2019-01-20T06:37:52.164Z,88.96
2019-01-20T06:40:19.889Z,89.43
2019-01-20T06:42:47.360Z,89.00
2019-01-20T06:45:15.064Z,89.15
2019-01-20T06:47:42.739Z,88.60
2019-01-20T06:50:11.997Z,88.28
2019-01-20T06:52:39.552Z,87.95
2019-01-20T06:55:08.651Z,87.94
2019-01-20T06:57:36.101Z,88.02
2019-01-20T07:00:05.160Z,86.45
2019-01-20T07:02:32.570Z,86.30
2019-01-20T07:12:28.423Z,84.20
2019-01-20T07:14:56.120Z,83.66
2019-01-20T07:17:23.765Z,84.23
2019-01-20T07:19:51.576Z,84.60
2019-01-20T07:22:19.356Z,84.29
2019-01-20T07:24:46.836Z,84.57
2019-01-20T07:27:14.578Z,84.18
2019-01-20T07:29:42.182Z,83.41
2019-01-20T07:32:09.775Z,84.92
2019-01-20T07:34:37.371Z,84.25
2019-01-20T07:37:05.023Z,84.46
2019-01-20T07:39:32.682Z,85.26
2019-01-20T07:42:00.495Z,85.18
2019-01-20T07:44:27.973Z,85.76
2019-01-20T07:46:55.654Z,84.95
2019-01-20T07:49:23.296Z,84.37
2019-01-20T07:51:51.018Z,84.01
2019-01-20T07:54:18.665Z,83.09
2019-01-20T07:56:46.339Z,82.81
2019-01-20T07:59:13.943Z,84.27
2019-01-20T08:01:41.466Z,83.58
2019-01-20T08:04:09.257Z,82.99
2019-01-20T08:06:37.481Z,81.94
2019-01-20T08:09:07.409Z,81.95
2019-01-20T08:11:35.006Z,82.29
2019-01-20T08:14:02.533Z,81.71
2019-01-20T08:16:29.966Z,81.30
2019-01-20T08:18:57.531Z,81.80
2019-01-20T08:21:25.137Z,82.44
2019-01-20T08:23:52.718Z,81.33
2019-01-20T08:26:20.283Z,81.17
2019-01-20T08:28:47.955Z,80.39
2019-01-20T08:31:15.534Z,79.81
2019-01-20T08:33:43.083Z,78.74
2019-01-20T08:36:10.745Z,78.46
2019-01-20T08:38:38.289Z,78.47
2019-01-20T08:41:05.827Z,79.11
2019-01-20T08:43:33.435Z,79.04
2019-01-20T08:46:21.056Z,79.55
2019-01-20T08:48:48.622Z,80.11
2019-01-20T08:51:16.213Z,79.77
2019-01-20T08:53:43.674Z,80.96
2019-01-20T08:56:11.263Z,80.80
2019-01-20T08:58:39.083Z,80.86
2019-01-20T09:01:06.794Z,81.11
2019-01-20T09:03:34.320Z,80.98
2019-01-20T09:06:02.099Z,81.43
2019-01-20T09:08:29.618Z,80.62
2019-01-20T09:10:57.215Z,80.54
2019-01-20T09:13:24.819Z,80.91
2019-01-20T09:15:52.521Z,81.11
2019-01-20T09:18:19.943Z,81.29
2019-01-20T09:20:48.274Z,81.52
2019-01-20T09:23:15.895Z,81.45
2019-01-20T09:25:43.465Z,81.54
2019-01-20T09:28:11.088Z,81.20
2019-01-20T09:30:38.680Z,80.85
2019-01-20T09:33:06.736Z,81.10
2019-01-20T09:35:34.335Z,80.43
2019-01-20T09:38:01.894Z,79.98
2019-01-20T09:40:29.521Z,80.06
2019-01-20T09:42:57.100Z,78.93
2019-01-20T09:45:28.071Z,78.19
2019-01-20T09:47:56.090Z,77.03
2019-01-20T09:50:23.863Z,76.30
2019-01-20T09:52:51.728Z,76.19
2019-01-20T09:55:19.360Z,77.43
2019-01-20T09:57:47.231Z,76.95
2019-01-20T10:00:16.701Z,77.17
2019-01-20T10:02:44.369Z,77.29
2019-01-20T10:05:12.366Z,77.36
2019-01-20T10:07:39.928Z,77.73
2019-01-20T10:10:10.632Z,77.42
2019-01-20T10:12:38.228Z,77.93
2019-01-20T10:15:07.150Z,77.28
2019-01-20T10:17:34.669Z,76.19
2019-01-20T10:20:02.833Z,76.74
2019-01-20T10:22:30.452Z,76.96
2019-01-20T10:24:57.909Z,77.07
2019-01-20T10:27:25.442Z,77.63
2019-01-20T10:29:52.992Z,78.00
2019-01-20T10:32:20.544Z,77.35
2019-01-20T10:34:49.265Z,79.03
2019-01-20T10:37:17.405Z,78.53
2019-01-20T10:39:44.908Z,76.51
2019-01-20T10:42:12.406Z,79.00
2019-01-20T10:44:39.909Z,76.87
2019-01-20T10:47:07.462Z,75.00
2019-01-20T10:49:34.918Z,75.92
2019-01-20T10:52:03.013Z,76.24
2019-01-20T10:54:30.610Z,76.51
2019-01-20T10:56:58.292Z,76.40
2019-01-20T10:59:25.871Z,77.76
2019-01-20T11:01:53.484Z,77.44
2019-01-20T11:04:21.151Z,77.25
2019-01-20T11:06:48.771Z,77.43
2019-01-20T11:09:16.404Z,78.52
2019-01-20T11:11:44.171Z,78.67
2019-01-20T11:14:11.774Z,78.63
2019-01-20T11:16:39.348Z,78.08
2019-01-20T11:19:06.913Z,77.97
2019-01-20T11:21:34.888Z,77.80
2019-01-20T11:24:02.865Z,77.71
2019-01-20T11:26:30.544Z,77.24
2019-01-20T11:28:58.379Z,77.20
2019-01-20T11:31:26.061Z,78.55
2019-01-20T11:33:54.745Z,75.65
2019-01-20T11:36:22.499Z,75.46
2019-01-20T11:38:50.364Z,75.01
2019-01-20T11:41:18.007Z,75.04
2019-01-20T11:43:45.822Z,73.23
2019-01-20T11:46:13.655Z,72.96
2019-01-20T11:48:41.632Z,72.86
2019-01-20T11:51:09.436Z,74.17
2019-01-20T11:53:37.162Z,75.22
2019-01-20T11:56:04.896Z,76.44
2019-01-20T11:58:32.928Z,74.10
2019-01-20T12:01:00.916Z,72.81
2019-01-20T12:03:28.928Z,73.66
2019-01-20T12:05:56.567Z,72.58
2019-01-20T12:08:30.389Z,72.16
2019-01-20T12:10:53.840Z,71.93
2019-01-20T12:13:26.642Z,74.14
2019-01-20T12:15:54.496Z,72.78
2019-01-20T12:18:22.369Z,73.49
2019-01-20T12:20:49.969Z,72.45
2019-01-20T12:23:17.705Z,72.11
2019-01-20T12:25:45.308Z,72.65
2019-01-20T12:28:12.929Z,71.45
2019-01-20T12:30:40.495Z,72.66
2019-01-20T12:33:08.754Z,70.70
2019-01-20T12:35:36.353Z,70.34
2019-01-20T12:38:04.547Z,70.67
2019-01-20T12:40:35.286Z,71.91
2019-01-20T12:43:04.069Z,72.52
2019-01-20T12:45:31.650Z,73.80
2019-01-20T12:47:59.257Z,74.68
2019-01-20T12:50:26.837Z,72.35
2019-01-20T12:52:54.274Z,72.14
2019-01-20T12:55:21.766Z,71.60
2019-01-20T12:57:49.229Z,72.15
2019-01-20T13:00:17.746Z,72.10
2019-01-20T13:02:45.444Z,71.15
2019-01-20T13:05:13.261Z,71.30
2019-01-20T13:07:40.708Z,72.48
2019-01-20T13:10:09.859Z,72.61
2019-01-20T13:12:37.532Z,71.21
2019-01-20T13:15:07.300Z,71.26
2019-01-20T13:17:34.754Z,70.87
2019-01-20T13:20:02.810Z,71.08
2019-01-20T13:22:30.375Z,71.44
2019-01-20T13:24:57.869Z,71.14
2019-01-20T13:27:25.583Z,71.44
2019-01-20T13:29:53.667Z,70.80
2019-01-20T13:32:21.468Z,70.52
2019-01-20T13:34:49.345Z,70.70
2019-01-20T13:37:16.983Z,70.85
2019-01-20T13:39:44.626Z,70.53
2019-01-20T13:42:12.432Z,71.14
2019-01-20T13:44:46.046Z,71.78
2019-01-20T13:47:09.296Z,71.95
2019-01-20T13:49:36.881Z,73.41
2019-01-20T13:52:04.760Z,73.55
2019-01-20T13:54:32.201Z,71.99
2019-01-20T13:56:59.702Z,71.50
2019-01-20T13:59:27.571Z,71.98
2019-01-20T14:01:55.431Z,72.64
2019-01-20T14:04:23.429Z,74.68
2019-01-20T14:06:51.138Z,73.90
2019-01-20T14:09:18.728Z,72.61
2019-01-20T14:11:46.387Z,72.69
2019-01-20T14:14:14.028Z,73.49
2019-01-20T14:16:41.648Z,75.14
2019-01-20T14:19:09.220Z,76.14
2019-01-20T14:21:36.759Z,75.22
2019-01-20T14:24:04.885Z,74.87
2019-01-20T14:26:32.482Z,75.85
2019-01-20T14:29:00.227Z,76.41
2019-01-20T14:31:27.703Z,78.17
2019-01-20T14:33:55.160Z,77.39
2019-01-20T14:36:22.859Z,74.15
2019-01-20T14:38:50.445Z,73.75
2019-01-20T14:41:17.967Z,75.30
2019-01-20T14:43:45.713Z,75.72
2019-01-20T14:46:13.331Z,76.41
2019-01-20T14:48:40.794Z,77.28
2019-01-20T14:51:08.281Z,76.67
2019-01-20T14:53:35.880Z,75.54
2019-01-20T14:56:03.799Z,74.83
2019-01-20T14:58:31.332Z,74.75
2019-01-20T15:00:58.838Z,77.12
2019-01-20T15:03:26.330Z,74.55
2019-01-20T15:05:53.910Z,75.38
2019-01-20T15:08:21.451Z,76.27
2019-01-20T15:10:48.964Z,77.02
2019-01-20T15:13:16.643Z,76.73
2019-01-20T15:15:44.874Z,77.93
2019-01-20T15:18:12.376Z,76.80
2019-01-20T15:20:40.599Z,76.95
2019-01-20T15:23:09.246Z,77.47
2019-01-20T15:25:36.896Z,77.81
2019-01-20T15:28:05.988Z,80.06
2019-01-20T15:30:34.109Z,77.57
2019-01-20T15:33:02.899Z,78.41
2019-01-20T15:35:30.833Z,79.48
2019-01-20T15:37:58.723Z,79.32
2019-01-20T15:40:27.187Z,79.67
2019-01-20T15:42:54.778Z,80.77
2019-01-20T15:45:22.505Z,82.20
2019-01-20T15:47:50.107Z,82.21
2019-01-20T15:50:20.557Z,81.65
2019-01-20T15:52:48.027Z,81.03
2019-01-20T15:55:15.803Z,81.23
2019-01-20T15:57:43.348Z,82.47
2019-01-20T16:00:14.377Z,81.67
2019-01-20T16:02:41.874Z,81.79
2019-01-20T16:05:09.687Z,82.06
2019-01-20T16:07:37.298Z,83.05
2019-01-20T16:10:06.483Z,84.75
2019-01-20T16:12:34.039Z,86.74
2019-01-20T16:15:01.722Z,87.29
2019-01-20T16:17:29.185Z,90.09
2019-01-20T16:19:56.715Z,91.94
2019-01-20T16:22:24.280Z,92.12
2019-01-20T16:24:51.859Z,88.47
2019-01-20T16:27:19.315Z,88.24
2019-01-20T16:29:47.231Z,89.44
2019-01-20T16:32:14.941Z,90.40
2019-01-20T16:34:42.481Z,90.72
2019-01-20T16:37:10.276Z,91.67
2019-01-20T16:39:37.909Z,92.24
2019-01-20T16:42:05.636Z,91.79
2019-01-20T16:44:33.285Z,91.02
2019-01-20T16:47:00.810Z,90.30
2019-01-20T16:49:28.332Z,89.78
2019-01-20T16:51:55.910Z,90.08
2019-01-20T16:54:23.357Z,90.80
2019-01-20T16:56:50.896Z,92.16
2019-01-20T16:59:18.566Z,91.44
2019-01-20T17:01:46.278Z,91.10
2019-01-20T17:04:13.971Z,91.72
2019-01-20T17:06:41.549Z,90.03
2019-01-20T17:09:09.225Z,90.12
2019-01-20T17:11:36.864Z,90.83
2019-01-20T17:14:04.725Z,91.71
2019-01-20T17:16:32.235Z,91.60
2019-01-20T17:18:59.780Z,92.71
2019-01-20T17:21:27.440Z,92.94
2019-01-20T17:23:55.123Z,93.53
2019-01-20T17:26:22.573Z,94.55
2019-01-20T17:28:50.035Z,95.74
2019-01-20T17:31:17.488Z,94.91
2019-01-20T17:33:45.018Z,94.67
2019-01-20T17:36:12.566Z,94.90
2019-01-20T17:38:40.049Z,95.28
2019-01-20T17:41:07.782Z,95.31
2019-01-20T17:43:35.358Z,95.46
2019-01-20T17:46:03.592Z,96.90
2019-01-20T17:48:31.123Z,98.16
2019-01-20T17:50:58.591Z,96.37
2019-01-20T17:53:26.125Z,95.12
2019-01-20T17:55:53.791Z,94.84
2019-01-20T17:58:21.301Z,94.01
2019-01-20T18:00:52.070Z,93.82
2019-01-20T18:03:20.540Z,94.94
2019-01-20T18:05:48.438Z,96.39
2019-01-20T18:08:16.023Z,98.41
2019-01-20T18:10:43.554Z,98.36
2019-01-20T18:13:11.235Z,96.29
2019-01-20T18:15:38.915Z,94.92
2019-01-20T18:18:06.372Z,93.89
2019-01-20T18:20:34.593Z,94.36
2019-01-20T18:23:02.065Z,94.36
2019-01-20T18:25:29.929Z,93.98
2019-01-20T18:27:57.414Z,93.46
2019-01-20T18:30:26.030Z,93.10
2019-01-20T18:32:54.435Z,91.97
2019-01-20T18:35:23.757Z,91.55
2019-01-20T18:37:52.560Z,92.52
2019-01-20T18:40:21.278Z,92.50
2019-01-20T18:42:49.149Z,93.69
2019-01-20T18:45:19.080Z,92.25
2019-01-20T18:47:46.697Z,92.35
2019-01-20T18:50:17.063Z,93.41
2019-01-20T18:52:44.781Z,93.32
2019-01-20T18:55:14.806Z,93.57
2019-01-20T18:57:42.518Z,91.11
2019-01-20T19:00:14.106Z,89.78
2019-01-20T19:02:41.694Z,89.92
2019-01-20T19:05:11.794Z,90.59
2019-01-20T19:07:39.412Z,90.44
2019-01-20T19:10:08.161Z,90.30
2019-01-20T19:12:35.812Z,89.92
2019-01-20T19:15:04.712Z,88.48
2019-01-20T19:17:32.222Z,88.86
2019-01-20T19:19:59.952Z,87.97
2019-01-20T19:22:27.587Z,85.40
2019-01-20T19:24:55.336Z,86.79
2019-01-20T19:27:22.905Z,88.40
2019-01-20T19:29:50.612Z,87.05
2019-01-20T19:32:18.178Z,86.79
2019-01-20T19:34:45.755Z,88.42
2019-01-20T19:37:13.324Z,89.79
2019-01-20T19:39:41.043Z,89.62
2019-01-20T19:42:08.528Z,88.37
2019-01-20T19:44:36.178Z,87.23
2019-01-20T19:47:03.781Z,89.49
2019-01-20T19:49:31.270Z,86.27
2019-01-20T19:51:58.701Z,86.05
2019-01-20T19:54:26.179Z,88.09
2019-01-20T19:56:53.672Z,86.98
2019-01-20T19:59:21.099Z,89.12
2019-01-20T20:01:48.619Z,87.14
2019-01-20T20:04:16.173Z,86.86
2019-01-20T20:06:43.826Z,86.08
2019-01-20T20:09:12.384Z,87.27
2019-01-20T20:11:39.919Z,86.88
2019-01-20T20:14:07.481Z,86.36
2019-01-20T20:16:34.959Z,87.64
2019-01-20T20:19:02.370Z,89.31
2019-01-20T20:21:29.816Z,91.26
2019-01-20T20:23:57.441Z,90.73
2019-01-20T20:26:25.021Z,89.12
2019-01-20T20:28:52.509Z,89.26
2019-01-20T20:31:20.169Z,86.29
2019-01-20T20:33:47.788Z,89.47
2019-01-20T20:36:15.309Z,87.53
2019-01-20T20:38:42.865Z,87.63
2019-01-20T20:41:10.421Z,87.08
2019-01-20T20:43:37.946Z,88.49
2019-01-20T20:46:05.669Z,89.35
2019-01-20T20:48:33.076Z,88.50
2019-01-20T20:51:00.552Z,88.82
2019-01-20T20:53:28.099Z,90.10
2019-01-20T20:55:55.704Z,91.82
2019-01-20T20:58:23.322Z,92.27
2019-01-20T21:00:52.921Z,92.56
2019-01-20T21:03:32.294Z,93.47
2019-01-20T21:05:59.765Z,92.97
2019-01-20T21:08:27.333Z,92.73
2019-01-20T21:10:54.903Z,92.97
2019-01-20T21:13:22.434Z,93.53
2019-01-20T21:15:50.977Z,94.27
2019-01-20T21:18:18.599Z,96.94
2019-01-20T21:20:46.138Z,95.49
2019-01-20T21:23:13.589Z,94.73
2019-01-20T21:25:41.318Z,94.00
2019-01-20T21:28:08.820Z,94.52
2019-01-20T21:30:36.251Z,94.05
2019-01-20T21:33:03.973Z,94.19
2019-01-20T21:35:31.592Z,94.25
2019-01-20T21:38:06.525Z,93.73
2019-01-20T21:40:28.702Z,94.59
2019-01-20T21:42:56.228Z,95.35
2019-01-20T21:45:23.830Z,95.94
2019-01-20T21:47:51.498Z,95.98
2019-01-20T21:50:24.587Z,95.03
2019-01-20T21:52:51.979Z,94.28
2019-01-20T21:55:19.664Z,93.68
2019-01-20T21:57:47.507Z,93.74
2019-01-20T22:00:17.723Z,93.77
2019-01-20T22:02:45.207Z,93.26
2019-01-20T22:05:12.874Z,93.09
2019-01-20T22:07:40.362Z,93.78
2019-01-20T22:10:13.334Z,94.69
2019-01-20T22:12:40.867Z,94.55
2019-01-20T22:15:09.309Z,94.23
2019-01-20T22:17:36.841Z,95.91
2019-01-20T22:20:06.743Z,95.84
2019-01-20T22:22:34.270Z,95.69
2019-01-20T22:25:01.789Z,94.54
2019-01-20T22:27:29.353Z,95.06
2019-01-20T22:29:56.830Z,94.74
2019-01-20T22:32:24.552Z,94.77
2019-01-20T22:34:51.934Z,95.32
2019-01-20T22:37:19.424Z,95.80
2019-01-20T22:39:46.971Z,96.34
2019-01-20T22:42:14.586Z,95.55
2019-01-20T22:44:42.019Z,95.49
2019-01-20T22:47:09.534Z,94.38
2019-01-20T22:49:36.911Z,90.57
2019-01-20T22:52:04.458Z,89.15
2019-01-20T22:54:32.123Z,90.12
2019-01-20T22:56:59.659Z,92.69
2019-01-20T22:59:27.204Z,91.90
2019-01-20T23:01:55.080Z,93.35
2019-01-20T23:04:22.596Z,90.29
2019-01-20T23:06:50.232Z,88.08
2019-01-20T23:09:17.781Z,85.67
2019-01-20T23:11:45.431Z,87.34
2019-01-20T23:14:13.117Z,89.20
2019-01-20T23:16:40.593Z,87.80
2019-01-20T23:19:08.215Z,87.59
2019-01-20T23:21:35.821Z,87.87
2019-01-20T23:24:03.880Z,88.21
2019-01-20T23:26:31.413Z,88.69
2019-01-20T23:28:58.918Z,89.56
2019-01-20T23:31:26.540Z,90.26
2019-01-20T23:33:53.984Z,91.14
2019-01-20T23:36:21.491Z,91.23
2019-01-20T23:38:49.057Z,91.72
2019-01-20T23:41:16.736Z,92.61
2019-01-20T23:43:44.316Z,93.64
2019-01-20T23:46:11.952Z,94.08
2019-01-20T23:48:39.346Z,94.38
2019-01-20T23:51:06.847Z,93.16
2019-01-20T23:53:34.398Z,92.96
2019-01-20T23:56:01.942Z,93.28
2019-01-20T23:58:29.423Z,93.04
